createdAt,value
2019-01-14T00:00:02.301Z,4.20
2019-01-14T00:02:32.978Z,4.40
2019-01-14T00:05:03.740Z,4.30
2019-01-14T00:07:34.195Z,4.00
2019-01-14T00:10:05.070Z,4.10
2019-01-14T00:12:36.140Z,4.10
2019-01-14T00:15:07.216Z,4.10
2019-01-14T00:17:37.544Z,4.20
2019-01-14T00:20:08.897Z,4.10
2019-01-14T00:22:39.249Z,4.00
2019-01-14T00:25:10.043Z,4.00
2019-01-14T00:27:40.430Z,3.90
2019-01-14T00:30:14.919Z,3.90
2019-01-14T00:32:45.459Z,4.00
2019-01-14T00:35:15.817Z,3.90
2019-01-14T00:37:46.176Z,4.00
2019-01-14T00:40:17.387Z,4.10
2019-01-14T00:42:50.783Z,4.00
2019-01-14T00:45:22.582Z,3.90
2019-01-14T00:47:52.882Z,3.60
2019-01-14T00:50:23.346Z,3.40
2019-01-14T00:52:54.784Z,3.10
2019-01-14T00:55:25.485Z,3.30
2019-01-14T00:57:55.834Z,3.30
2019-01-14T01:00:26.585Z,3.30
2019-01-14T01:02:56.878Z,3.30
2019-01-14T01:05:27.319Z,3.30
2019-01-14T01:07:57.607Z,3.20
2019-01-14T01:10:51.292Z,3.10
2019-01-14T01:13:21.616Z,2.90
2019-01-14T01:15:52.508Z,2.70
2019-01-14T01:18:22.942Z,2.60
2019-01-14T01:20:53.751Z,2.50
2019-01-14T01:23:27.459Z,2.60
2019-01-14T01:25:57.749Z,2.70
2019-01-14T01:28:28.383Z,2.80
2019-01-14T01:30:59.892Z,2.70
2019-01-14T01:33:30.226Z,2.80
2019-01-14T01:36:00.747Z,2.80
2019-01-14T01:38:31.125Z,2.90
2019-01-14T01:41:02.311Z,3.00
2019-01-14T01:43:32.757Z,2.90
2019-01-14T01:46:03.476Z,3.00
2019-01-14T01:48:34.861Z,3.10
2019-01-14T01:51:09.419Z,3.20
2019-01-14T01:53:40.907Z,3.20
2019-01-14T01:56:11.958Z,3.20
2019-01-14T01:58:43.229Z,3.30
2019-01-14T02:01:13.997Z,3.20
2019-01-14T02:03:45.895Z,3.20
2019-01-14T02:06:25.549Z,3.30
2019-01-14T02:08:55.950Z,3.30
2019-01-14T02:11:34.497Z,3.30
2019-01-14T02:14:05.145Z,3.20
2019-01-14T02:16:35.653Z,3.30
2019-01-14T02:19:06.191Z,3.40
2019-01-14T02:21:36.527Z,3.40
2019-01-14T02:24:07.898Z,3.30
2019-01-14T02:26:38.694Z,3.30
2019-01-14T02:29:09.576Z,3.40
2019-01-14T02:31:58.849Z,3.30
2019-01-14T02:34:40.262Z,3.30
2019-01-14T02:40:36.014Z,3.20
2019-01-14T02:43:18.144Z,3.20
2019-01-14T02:45:59.665Z,3.10
2019-01-14T02:48:41.444Z,3.20
2019-01-14T02:51:23.409Z,3.30
2019-01-14T02:54:04.744Z,3.10
2019-01-14T02:56:46.762Z,3.20
2019-01-14T02:59:28.877Z,3.20
2019-01-14T03:02:12.384Z,3.20
2019-01-14T03:04:54.542Z,3.20
2019-01-14T03:07:36.875Z,3.20
2019-01-14T03:10:18.703Z,3.30
2019-01-14T03:13:02.168Z,3.30
2019-01-14T03:15:43.864Z,3.30
2019-01-14T03:18:26.160Z,3.30
2019-01-14T03:21:07.888Z,3.30
2019-01-14T03:23:49.442Z,3.30
2019-01-14T03:26:31.785Z,3.30
2019-01-14T03:29:14.272Z,3.30
2019-01-14T03:31:55.627Z,3.30
2019-01-14T03:34:37.913Z,3.30
2019-01-14T03:37:19.739Z,3.20
2019-01-14T03:43:37.913Z,3.20
2019-01-14T03:49:20.759Z,3.20
2019-01-14T03:52:02.706Z,3.20
2019-01-14T03:54:44.850Z,3.10
2019-01-14T03:57:27.113Z,3.10
2019-01-14T04:00:09.473Z,3.20
2019-01-14T04:02:52.500Z,3.20
2019-01-14T04:05:34.249Z,3.10
2019-01-14T04:08:16.577Z,3.10
2019-01-14T04:10:58.620Z,3.20
2019-01-14T04:13:40.090Z,3.20
2019-01-14T04:16:22.083Z,3.10
2019-01-14T04:19:04.376Z,3.00
2019-01-14T04:21:46.040Z,3.00
2019-01-14T04:24:28.497Z,3.00
2019-01-14T04:27:09.871Z,3.00
2019-01-14T04:32:50.771Z,3.10
2019-01-14T04:35:32.810Z,3.10
2019-01-14T04:38:14.488Z,3.00
2019-01-14T04:40:56.434Z,3.10
2019-01-14T04:43:38.547Z,3.00
2019-01-14T04:46:20.813Z,3.00
2019-01-14T04:49:02.447Z,2.90
2019-01-14T04:51:47.281Z,3.00
2019-01-14T04:54:29.648Z,2.90
2019-01-14T04:57:00.702Z,3.00
2019-01-14T05:02:50.504Z,3.00
2019-01-14T05:05:32.426Z,2.80
2019-01-14T05:08:14.602Z,2.80
2019-01-14T05:10:56.253Z,2.90
2019-01-14T05:13:38.657Z,3.00
2019-01-14T05:16:20.296Z,2.90
2019-01-14T05:19:02.657Z,2.90
2019-01-14T05:21:44.831Z,2.90
2019-01-14T05:24:27.008Z,2.90
2019-01-14T05:27:08.758Z,2.70
2019-01-14T05:29:52.915Z,2.90
2019-01-14T05:32:34.951Z,2.90
2019-01-14T05:35:17.239Z,3.00
2019-01-14T05:37:59.787Z,2.90
2019-01-14T05:40:41.220Z,3.00
2019-01-14T05:43:22.965Z,3.00
2019-01-14T05:46:05.070Z,2.90
2019-01-14T05:48:47.333Z,3.00
2019-01-14T05:51:29.303Z,2.90
2019-01-14T05:54:10.421Z,2.80
2019-01-14T05:56:59.808Z,2.90
2019-01-14T05:59:41.507Z,2.70
2019-01-14T06:02:31.012Z,2.80
2019-01-14T06:05:13.163Z,2.90
2019-01-14T06:07:54.775Z,2.70
2019-01-14T06:10:36.937Z,2.80
2019-01-14T06:13:18.625Z,2.60
2019-01-14T06:16:01.049Z,2.70
2019-01-14T06:18:42.613Z,2.70
2019-01-14T06:21:24.388Z,2.80
2019-01-14T06:24:05.789Z,2.70
2019-01-14T06:26:50.047Z,2.60
2019-01-14T06:29:32.433Z,2.70
2019-01-14T06:32:14.782Z,2.70
2019-01-14T06:34:56.500Z,2.80
2019-01-14T06:37:38.484Z,2.80
2019-01-14T06:40:20.514Z,2.80
2019-01-14T06:43:02.930Z,2.80
2019-01-14T06:45:44.513Z,2.80
2019-01-14T06:48:26.038Z,2.80
2019-01-14T06:51:07.524Z,2.80
2019-01-14T06:53:50.066Z,2.70
2019-01-14T06:56:31.793Z,2.80
2019-01-14T06:59:13.749Z,2.80
2019-01-14T07:01:56.258Z,2.80
2019-01-14T07:04:37.806Z,2.80
2019-01-14T07:07:20.186Z,2.80
2019-01-14T07:10:01.988Z,2.80
2019-01-14T07:12:44.239Z,2.90
2019-01-14T07:15:26.309Z,2.90
2019-01-14T07:18:08.004Z,2.90
2019-01-14T07:20:50.052Z,2.90
2019-01-14T07:23:31.831Z,2.90
2019-01-14T07:26:14.259Z,2.80
2019-01-14T07:28:56.560Z,2.80
2019-01-14T07:31:41.778Z,2.90
2019-01-14T07:34:23.750Z,2.90
2019-01-14T07:37:05.536Z,2.90
2019-01-14T07:39:47.211Z,2.90
2019-01-14T07:42:29.398Z,2.90
2019-01-14T07:45:11.363Z,2.80
2019-01-14T07:47:53.113Z,2.90
2019-01-14T07:50:34.955Z,2.80
2019-01-14T07:53:17.578Z,2.70
2019-01-14T07:55:59.613Z,2.80
2019-01-14T07:58:41.911Z,2.70
2019-01-14T08:01:23.888Z,2.70
2019-01-14T08:04:05.610Z,2.70
2019-01-14T08:06:47.503Z,2.80
2019-01-14T08:09:29.564Z,2.70
2019-01-14T08:12:11.643Z,2.70
2019-01-14T08:14:53.771Z,2.60
2019-01-14T08:17:35.417Z,2.60
2019-01-14T08:20:17.207Z,2.60
2019-01-14T08:22:59.242Z,2.60
2019-01-14T08:25:41.490Z,2.60
2019-01-14T08:28:23.308Z,2.60
2019-01-14T08:31:05.157Z,2.60
2019-01-14T08:33:47.328Z,2.60
2019-01-14T08:36:29.485Z,2.70
2019-01-14T08:39:10.989Z,2.70
2019-01-14T08:42:02.248Z,2.70
2019-01-14T08:44:44.453Z,2.70
2019-01-14T08:47:26.005Z,2.70
2019-01-14T08:50:08.171Z,2.70
2019-01-14T08:52:50.763Z,2.70
2019-01-14T08:55:32.836Z,2.70
2019-01-14T08:58:14.588Z,2.70
2019-01-14T09:00:56.831Z,2.70
2019-01-14T09:03:38.500Z,2.80
2019-01-14T09:06:27.700Z,2.80
2019-01-14T09:09:09.724Z,2.90
2019-01-14T09:11:52.123Z,2.80
2019-01-14T09:14:34.571Z,2.80
2019-01-14T09:17:16.714Z,2.80
2019-01-14T09:19:59.006Z,2.80
2019-01-14T09:22:40.608Z,2.80
2019-01-14T09:25:22.535Z,2.80
2019-01-14T09:31:12.723Z,2.70
2019-01-14T09:33:54.775Z,2.60
2019-01-14T09:36:38.190Z,2.70
2019-01-14T09:39:19.801Z,2.70
2019-01-14T09:42:01.815Z,2.70
2019-01-14T09:44:44.070Z,2.60
2019-01-14T09:47:25.946Z,2.60
2019-01-14T09:50:07.818Z,2.50
2019-01-14T09:52:51.314Z,2.40
2019-01-14T09:55:33.863Z,2.40
2019-01-14T09:58:15.713Z,2.40
2019-01-14T10:00:57.656Z,2.40
2019-01-14T10:03:39.859Z,2.40
2019-01-14T10:06:21.553Z,2.50
2019-01-14T10:09:05.191Z,2.50
2019-01-14T10:14:47.794Z,2.70
2019-01-14T10:17:36.961Z,2.70
2019-01-14T10:23:27.046Z,2.80
2019-01-14T10:26:09.913Z,2.80
2019-01-14T10:28:51.494Z,2.80
2019-01-14T10:31:34.674Z,2.80
2019-01-14T10:34:17.019Z,2.80
2019-01-14T10:36:58.895Z,2.80
2019-01-14T10:39:40.654Z,2.80
2019-01-14T10:42:23.325Z,2.80
2019-01-14T10:45:05.064Z,2.70
2019-01-14T10:47:46.481Z,2.70
2019-01-14T10:50:28.616Z,2.70
2019-01-14T10:53:10.833Z,2.80
2019-01-14T10:55:52.249Z,2.70
2019-01-14T10:58:34.415Z,2.70
2019-01-14T11:01:16.442Z,2.70
2019-01-14T11:03:58.327Z,2.70
2019-01-14T11:06:40.191Z,2.70
2019-01-14T11:09:21.820Z,2.60
2019-01-14T11:12:03.583Z,2.50
2019-01-14T11:14:45.256Z,2.50
2019-01-14T11:17:27.150Z,2.50
2019-01-14T11:20:09.332Z,2.60
2019-01-14T11:22:52.015Z,2.50
2019-01-14T11:28:16.025Z,2.50
2019-01-14T11:30:58.290Z,2.50
2019-01-14T11:33:40.473Z,2.50
2019-01-14T11:36:22.111Z,2.50
2019-01-14T11:39:05.167Z,2.50
2019-01-14T11:41:47.348Z,2.50
2019-01-14T11:44:29.047Z,2.50
2019-01-14T11:47:11.188Z,2.50
2019-01-14T11:49:54.018Z,2.40
2019-01-14T11:55:44.137Z,2.40
2019-01-14T11:58:27.291Z,2.50
2019-01-14T12:01:09.620Z,2.50
2019-01-14T12:03:51.624Z,2.50
2019-01-14T12:06:33.878Z,2.40
2019-01-14T12:09:16.072Z,2.30
2019-01-14T12:12:00.760Z,2.30
2019-01-14T12:14:42.761Z,2.40
2019-01-14T12:17:24.171Z,2.40
2019-01-14T12:20:06.146Z,2.50
2019-01-14T12:22:48.812Z,2.50
2019-01-14T12:25:30.367Z,2.40
2019-01-14T12:28:11.772Z,2.40
2019-01-14T12:30:53.419Z,2.40
2019-01-14T12:33:35.113Z,2.40
2019-01-14T12:36:17.403Z,2.40
2019-01-14T12:38:59.654Z,2.40
2019-01-14T12:41:41.723Z,1.80
2019-01-14T12:44:23.299Z,1.50
2019-01-14T12:47:05.613Z,1.10
2019-01-14T12:49:47.731Z,0.90
2019-01-14T12:52:29.530Z,0.80
2019-01-14T12:55:10.890Z,0.70
2019-01-14T12:57:52.748Z,0.80
2019-01-14T13:00:34.346Z,0.80
2019-01-14T13:03:16.551Z,0.70
2019-01-14T13:05:58.879Z,0.70
2019-01-14T13:08:41.030Z,0.70
2019-01-14T13:11:23.393Z,0.60
2019-01-14T13:14:07.205Z,0.80
2019-01-14T13:16:49.433Z,1.00
2019-01-14T13:19:31.207Z,0.90
2019-01-14T13:22:14.633Z,1.00
2019-01-14T13:24:56.058Z,1.10
2019-01-14T13:27:38.087Z,1.50
2019-01-14T13:30:20.026Z,1.60
2019-01-14T13:33:01.957Z,1.00
2019-01-14T13:35:44.132Z,0.60
2019-01-14T13:38:26.114Z,0.50
2019-01-14T13:41:08.384Z,0.40
2019-01-14T13:43:50.835Z,0.40
2019-01-14T13:46:33.481Z,0.40
2019-01-14T13:49:15.035Z,0.40
2019-01-14T13:51:57.431Z,0.40
2019-01-14T13:54:39.598Z,0.40
2019-01-14T13:57:21.177Z,0.40
2019-01-14T14:00:03.938Z,0.40
2019-01-14T14:02:46.205Z,0.40
2019-01-14T14:05:27.871Z,0.50
2019-01-14T14:08:10.107Z,0.50
2019-01-14T14:10:51.642Z,0.50
2019-01-14T14:13:33.799Z,0.50
2019-01-14T14:16:16.021Z,0.50
2019-01-14T14:18:57.802Z,0.50
2019-01-14T14:21:39.946Z,0.40
2019-01-14T14:30:21.535Z,0.50
2019-01-14T14:33:03.757Z,0.50
2019-01-14T14:35:45.620Z,0.50
2019-01-14T14:38:27.605Z,0.50
2019-01-14T14:41:10.055Z,0.50
2019-01-14T14:43:51.537Z,0.50
2019-01-14T14:46:33.995Z,0.50
2019-01-14T14:49:16.019Z,0.60
2019-01-14T14:54:38.590Z,0.50
2019-01-14T14:57:20.546Z,0.50
2019-01-14T15:00:01.850Z,0.40
2019-01-14T15:02:45.747Z,0.50
2019-01-14T15:05:27.651Z,0.40
2019-01-14T15:08:10.071Z,0.50
2019-01-14T15:10:52.362Z,0.50
2019-01-14T15:13:22.499Z,0.50
2019-01-14T15:16:11.697Z,0.50
2019-01-14T15:19:15.898Z,0.50
2019-01-14T15:21:57.440Z,0.50
2019-01-14T15:24:39.572Z,0.50
2019-01-14T15:27:21.548Z,0.50
2019-01-14T15:30:03.468Z,0.50
2019-01-14T15:32:43.737Z,0.50
2019-01-14T15:35:25.877Z,0.50
2019-01-14T15:41:22.593Z,0.50
2019-01-14T15:44:04.413Z,0.50
2019-01-14T15:46:46.377Z,0.50
2019-01-14T15:49:28.646Z,0.70
2019-01-14T15:52:10.510Z,0.70
2019-01-14T15:54:52.569Z,0.70
2019-01-14T15:57:34.510Z,0.70
2019-01-14T16:00:16.661Z,0.70
2019-01-14T16:02:58.462Z,0.70
2019-01-14T16:05:41.556Z,0.70
2019-01-14T16:08:24.204Z,0.80
2019-01-14T16:11:06.148Z,0.70
2019-01-14T16:13:47.599Z,0.70
2019-01-14T16:16:29.208Z,0.80
2019-01-14T16:19:11.679Z,0.80
2019-01-14T16:21:53.123Z,0.80
2019-01-14T16:24:35.391Z,0.80
2019-01-14T16:27:17.529Z,0.80
2019-01-14T16:29:59.613Z,0.90
2019-01-14T16:32:41.203Z,0.80
2019-01-14T16:35:23.199Z,0.90
2019-01-14T16:38:05.626Z,0.90
2019-01-14T16:40:47.385Z,0.90
2019-01-14T16:43:29.564Z,0.90
2019-01-14T16:46:11.470Z,0.90
2019-01-14T16:48:53.577Z,0.80
2019-01-14T16:51:35.302Z,0.90
2019-01-14T16:54:17.123Z,0.90
2019-01-14T16:56:59.454Z,0.90
2019-01-14T16:59:41.994Z,0.90
2019-01-14T17:02:31.418Z,0.90
2019-01-14T17:05:13.672Z,0.80
2019-01-14T17:07:55.894Z,0.80
2019-01-14T17:10:38.447Z,0.80
2019-01-14T17:13:20.265Z,0.70
2019-01-14T17:16:03.009Z,0.70
2019-01-14T17:18:44.740Z,0.70
2019-01-14T17:21:26.926Z,0.70
2019-01-14T17:24:08.745Z,0.70
2019-01-14T17:26:50.867Z,0.70
2019-01-14T17:29:32.374Z,0.70
2019-01-14T17:32:15.695Z,0.80
2019-01-14T17:34:57.925Z,0.70
2019-01-14T17:37:39.633Z,0.80
2019-01-14T17:40:21.549Z,0.70
2019-01-14T17:43:03.481Z,0.70
2019-01-14T17:45:45.309Z,0.70
2019-01-14T17:48:27.528Z,0.70
2019-01-14T17:51:09.698Z,0.60
2019-01-14T17:53:51.924Z,0.60
2019-01-14T17:56:33.265Z,0.50
2019-01-14T17:59:16.034Z,0.50
2019-01-14T18:01:57.959Z,0.50
2019-01-14T18:04:39.472Z,0.40
2019-01-14T18:07:21.421Z,0.40
2019-01-14T18:10:03.149Z,0.40
2019-01-14T18:12:45.568Z,0.50
2019-01-14T18:15:27.918Z,0.50
2019-01-14T18:18:09.892Z,0.40
2019-01-14T18:20:52.038Z,0.30
2019-01-14T18:23:33.523Z,0.40
2019-01-14T18:26:15.599Z,0.50
2019-01-14T18:28:57.728Z,0.60
2019-01-14T18:31:39.204Z,0.50
2019-01-14T18:34:20.881Z,0.50
2019-01-14T18:37:03.159Z,0.50
2019-01-14T18:39:48.411Z,0.40
2019-01-14T18:42:31.048Z,0.40
2019-01-14T18:45:13.072Z,0.30
2019-01-14T18:47:55.067Z,0.50
2019-01-14T18:50:37.204Z,0.40
2019-01-14T18:53:19.602Z,0.40
2019-01-14T18:56:01.381Z,0.30
2019-01-14T18:58:43.585Z,0.50
2019-01-14T19:01:26.054Z,0.40
2019-01-14T19:04:08.257Z,0.50
2019-01-14T19:06:49.705Z,0.40
2019-01-14T19:09:31.747Z,0.50
2019-01-14T19:12:12.228Z,0.60
2019-01-14T19:15:01.431Z,0.70
2019-01-14T19:18:02.505Z,0.70
2019-01-14T19:20:44.900Z,0.60
2019-01-14T19:23:27.040Z,0.60
2019-01-14T19:26:08.534Z,0.60
2019-01-14T19:28:51.538Z,0.70
2019-01-14T19:31:33.217Z,0.60
2019-01-14T19:34:15.990Z,0.60
2019-01-14T19:36:57.477Z,0.60
2019-01-14T19:39:39.038Z,0.70
2019-01-14T19:42:20.795Z,0.70
2019-01-14T19:45:02.867Z,0.80
2019-01-14T19:47:45.510Z,0.70
2019-01-14T19:50:27.789Z,0.80
2019-01-14T19:53:10.117Z,0.80
2019-01-14T19:55:52.281Z,0.70
2019-01-14T19:58:34.500Z,0.80
2019-01-14T20:01:16.346Z,0.80
2019-01-14T20:03:58.405Z,0.80
2019-01-14T20:06:39.738Z,0.80
2019-01-14T20:09:22.498Z,0.80
2019-01-14T20:12:04.506Z,0.80
2019-01-14T20:14:46.306Z,0.80
2019-01-14T20:17:30.189Z,0.80
2019-01-14T20:20:12.876Z,0.80
2019-01-14T20:23:02.379Z,0.80
2019-01-14T20:25:44.127Z,0.80
2019-01-14T20:28:25.953Z,0.80
2019-01-14T20:31:07.679Z,0.90
2019-01-14T20:33:49.245Z,0.80
2019-01-14T20:36:31.585Z,0.80
2019-01-14T20:39:13.847Z,0.80
2019-01-14T20:41:44.311Z,0.80
2019-01-14T20:44:14.508Z,0.80
2019-01-14T20:46:44.700Z,0.80
2019-01-14T20:49:14.947Z,0.80
2019-01-14T20:51:45.380Z,0.70
2019-01-14T20:54:15.646Z,0.80
2019-01-14T20:56:45.906Z,0.70
2019-01-14T20:59:16.394Z,0.70
2019-01-14T21:01:47.683Z,0.60
2019-01-14T21:04:17.758Z,0.70
2019-01-14T21:06:47.808Z,0.70
2019-01-14T21:09:17.971Z,0.70
2019-01-14T21:11:49.674Z,0.70
2019-01-14T21:14:19.799Z,0.70
2019-01-14T21:16:49.873Z,0.70
2019-01-14T21:19:20.280Z,0.60
2019-01-14T21:21:50.438Z,0.70
2019-01-14T21:24:20.608Z,0.60
2019-01-14T21:26:50.719Z,0.60
2019-01-14T21:29:25.943Z,0.40
2019-01-14T21:31:53.469Z,0.30
2019-01-14T21:34:23.539Z,0.50
2019-01-14T21:36:53.655Z,0.40
2019-01-14T21:39:23.806Z,0.30
2019-01-14T21:41:53.829Z,0.30
2019-01-14T21:44:23.898Z,0.20
2019-01-14T21:46:53.932Z,0.10
2019-01-14T21:49:24.994Z,0.00
2019-01-14T21:51:55.362Z,0.00
2019-01-14T21:54:25.449Z,0.00
2019-01-14T21:56:55.538Z,0.00
2019-01-14T21:59:25.581Z,0.00
2019-01-14T22:01:55.813Z,0.00
2019-01-14T22:04:25.847Z,0.00
2019-01-14T22:06:55.900Z,0.10
2019-01-14T22:09:25.932Z,0.10
2019-01-14T22:11:56.072Z,0.10
2019-01-14T22:14:26.370Z,0.10
2019-01-14T22:16:57.455Z,0.10
2019-01-14T22:19:27.568Z,0.10
2019-01-14T22:21:57.600Z,0.10
2019-01-14T22:24:27.703Z,0.10
2019-01-14T22:26:57.785Z,0.00
2019-01-14T22:29:27.842Z,0.10
2019-01-14T22:31:57.875Z,0.10
2019-01-14T22:34:27.925Z,0.10
2019-01-14T22:36:57.947Z,0.10
2019-01-14T22:39:28.014Z,0.20
2019-01-14T22:41:58.032Z,0.20
2019-01-14T22:44:28.170Z,0.20
2019-01-14T22:46:58.502Z,0.20
2019-01-14T22:49:28.639Z,0.20
2019-01-14T22:51:58.794Z,0.20
2019-01-14T22:54:29.009Z,0.20
2019-01-14T22:56:59.171Z,0.20
2019-01-14T22:59:29.612Z,0.20
2019-01-14T23:01:59.888Z,0.20
2019-01-14T23:04:29.958Z,0.20
2019-01-14T23:07:00.086Z,0.20
2019-01-14T23:09:31.094Z,0.20
2019-01-14T23:12:01.171Z,0.20
2019-01-14T23:14:31.233Z,0.10
2019-01-14T23:17:01.642Z,0.00
2019-01-14T23:19:31.808Z,0.00
2019-01-14T23:22:01.888Z,-0.10
2019-01-14T23:24:32.037Z,-0.10
2019-01-14T23:27:02.123Z,-0.10
2019-01-14T23:29:32.373Z,-0.10
2019-01-14T23:32:02.737Z,0.00
2019-01-14T23:34:32.882Z,-0.10
2019-01-14T23:37:05.796Z,0.00
2019-01-14T23:39:35.909Z,0.00
2019-01-14T23:42:06.123Z,-0.10
2019-01-14T23:44:36.264Z,-0.10
2019-01-14T23:47:06.673Z,-0.10
2019-01-14T23:49:38.419Z,-0.20
2019-01-14T23:52:08.949Z,-0.20
2019-01-14T23:54:39.097Z,-0.20
2019-01-14T23:57:09.192Z,-0.20
2019-01-14T23:59:39.269Z,-0.20
